x

9442396 - La Push, Wa (lapw1) Weather Station

9:30 - Tue 5th May 2015 All times are PDT. -7 hours from GMT.

  • Wind
    2mph
  • Sea Temp 50°f
  • Aire Temp 47°f
  • Sea Pressure 1019.4mb
  • 9442396 - La Push, Wa
  • 9442396 - La Push, Wa

More Historic Weather Station data

Upgrade to MSW Pro to gain access to the past 30 days of data for over 8000 Wavebouys and Weather Stations around the globe.

Join Pro

Comparision Forecast

View Surf forecast
   
mar 05/05 9:30 2
mph
1019.4mb 50f 47f
9:24 2
mph
1019.4mb 50f 47f
9:18 2
mph
1019.3mb 51f 47f
9:12 1 2 mph 1019.1mb 51f 48f
9:06 1 2 mph 1019.1mb 51f 48f
9:00 1 2 mph 1019mb 51f 49f
8:36 2 3 mph 1018.9mb 52f 50f
8:30 3
mph
1018.9mb 52f 50f
8:24 3 5 mph 1018.8mb 52f 50f
8:18 3 5 mph 1018.8mb 52f 50f
8:12 3 5 mph 1018.7mb 53f 50f
8:06 3 5 mph 1018.7mb 53f 51f
8:00 2 3 mph 1018.6mb 53f 51f
7:36 5 6 mph 1018.5mb 53f 50f
7:30 3 5 mph 1018.5mb 53f 51f
7:24 2 5 mph 1018.5mb 53f 51f
7:18 5
mph
1018.5mb 52f 51f
7:12 5 6 mph 1018.5mb 52f 51f
7:06 6 7 mph 1018.5mb 52f 51f
7:00 3 5 mph 1018.5mb 52f 51f
6:36 3
mph
1018.5mb 51f 51f
6:30 2 3 mph 1018.5mb 51f 51f
6:24 2 3 mph 1018.5mb 51f 50f
6:18 2 3 mph 1018.5mb 50f 50f
6:12 3 5 mph 1018.5mb 50f 50f
6:06 5 6 mph 1018.5mb 50f 50f
6:00 6
mph
1018.5mb 50f 50f
5:36 7
mph
1018.5mb 50f 50f
5:30 6 9 mph - - 49f
5:24 7 10 mph 1018.5mb 50f 50f
5:18 8 9 mph 1018.5mb 49f 50f
5:12 8 11 mph 1018.5mb 50f 50f
5:06 9 14 mph 1018.5mb 50f 50f
5:00 9 13 mph - - 51f
4:36 10 14 mph 1018.5mb 50f 51f
4:30 8 11 mph 1018.5mb 50f 52f
4:24 7 9 mph 1018.4mb 50f 51f
4:18 7 10 mph 1018.4mb 50f 52f
4:12 8 10 mph 1018.5mb 50f 51f
4:06 7 9 mph 1018.5mb 50f 51f
4:00 7 9 mph 1018.5mb 50f 52f
3:36 5 9 mph 1018.5mb 50f 52f
3:30 6 8 mph 1018.5mb 50f 51f
3:24 6 9 mph 1018.6mb 50f 51f
3:18 6 8 mph 1018.6mb 50f 51f
3:12 5 9 mph 1018.6mb 50f 51f
3:06 7 9 mph 1018.6mb 50f 51f
3:00 7 9 mph 1018.6mb 50f 51f
2:36 3 6 mph 1018.6mb 50f 50f
2:30 6 8 mph - - 50f
2:24 6 10 mph 1018.6mb 50f 50f
2:18 8 13 mph 1018.7mb 50f 50f
2:12 8 10 mph 1018.6mb 50f 50f
2:06 9 15 mph 1018.7mb 50f 50f
2:00 10 16 mph 1018.6mb 50f 50f
1:36 8 11 mph 1018.4mb 50f 51f
1:30 9 11 mph 1018.4mb 50f 51f
1:24 7 9 mph 1018.3mb 50f 51f
1:18 7 9 mph 1018.3mb 50f 51f
1:12 7 9 mph - - 51f
1:06 7 9 mph 1018.3mb 50f 51f
1:00 6 9 mph 1018.3mb 50f 51f
12:36 8 11 mph 1018.3mb 50f 49f
12:30 11 15 mph 1018.3mb 50f 49f
12:24 11 16 mph 1018.2mb 49f 49f
12:18 13 16 mph 1018.2mb 49f 50f
12:12 11 14 mph 1018.1mb 49f 51f
12:06 9 11 mph 1018.1mb 49f 51f
12:00 9 11 mph 1018mb 49f 51f
11:36 8 11 mph 1017.9mb 49f 51f
11:30 9 10 mph 1017.8mb 49f 51f
11:24 9 11 mph 1017.8mb 49f 50f
11:18 8 9 mph 1017.7mb 49f 50f
11:12 7 10 mph 1017.7mb 49f 51f
11:06 7 10 mph 1017.7mb 49f 50f
11:00 7 11 mph 1017.6mb 49f 50f
10:36 7 10 mph 1017.3mb 50f 50f
10:30 6 8 mph 1017.3mb 50f 51f
10:24 5 7 mph 1017.2mb 50f 50f
10:18 6 7 mph 1017.1mb 50f 50f
10:12 5 7 mph 1017mb 50f 49f
10:06  -  mph 1017mb 50f -
10:00 3 6 mph 1017mb 50f 49f
9:36 3 5 mph 1016.8mb 50f 49f
9:30 2 5 mph 1016.8mb 50f 48f
9:24 2 6 mph 1016.8mb 50f 48f
9:18 5 6 mph 1016.7mb 50f 47f
9:12 5 6 mph 1016.7mb 50f 47f
9:06 5 7 mph 1016.6mb 50f 47f
9:00 6 7 mph 1016.5mb 50f 46f
8:36 6 8 mph 1016.3mb 50f 45f
8:30  -  mph 1016.3mb 50f -
8:24 5 7 mph 1016.2mb 50f 45f
8:18 3 7 mph 1016.1mb 50f 45f
8:12 5 6 mph 1016mb 50f 45f
8:06 6 8 mph 1016mb 50f 45f
8:00 7 8 mph 1015.9mb 50f 45f
7:36  -  mph 1015.5mb 50f -
7:30  -  mph 1015.5mb 50f -
7:18 6 7 mph - - 45f
7:12 6 8 mph 1015.3mb 50f 45f
7:06 7 9 mph 1015.2mb 50f 45f
7:00 7 8 mph 1015.2mb 50f 45f
6:36 2 7 mph 1014.9mb 50f 46f
6:30 5 13 mph 1014.9mb 50f 47f
6:24 11 14 mph 1014.8mb 50f 48f
6:18 9 18 mph 1014.7mb 50f 49f
6:12 15 20 mph 1014.7mb 50f 49f
6:06 10 15 mph 1014.7mb 50f 49f
6:00 8 11 mph 1014.5mb 50f 50f
5:36 7 10 mph 1014.4mb 50f 48f
5:30 6 8 mph 1014.3mb 50f 46f
5:24 5 6 mph 1014.2mb 49f 46f
5:18 2 3 mph 1014.2mb 49f 46f
5:12 2 3 mph 1014.2mb 49f 46f
5:06 3 6 mph 1014.2mb 49f 48f
5:00 5 7 mph 1014.2mb 49f 47f
4:36 6 7 mph 1014.1mb 49f 45f
4:30 5 6 mph 1014.1mb 49f 45f
4:24 5 6 mph 1014.1mb 49f 45f
4:18 5 7 mph 1014.1mb 49f 45f
4:12 6 7 mph - - 45f
4:06 3 7 mph 1014mb 49f 46f
4:00 5 6 mph 1014mb 49f 46f
3:36 2 6 mph 1014mb 48f 46f
3:30 3 5 mph 1014mb 48f 46f
3:24 3
mph
1013.9mb 48f 46f
3:18 2 3 mph 1013.9mb 48f 46f
3:12 2 5 mph 1014mb 48f 46f
3:06 6 8 mph 1014.1mb 48f 46f
3:00 2 5 mph 1013.8mb 48f 46f
2:36 2 7 mph 1014mb 48f 47f
2:30 7 8 mph 1014.2mb 48f 47f
2:24 7 8 mph 1014.3mb 48f 47f
2:18 7 9 mph 1014.3mb 48f 48f
2:12 7 10 mph 1014.3mb 48f 48f
2:06 5 8 mph 1014mb 48f 48f
2:00 6 7 mph 1014mb 48f 48f
1:36 2 5 mph 1014.1mb 48f 47f
1:30 2 16 mph 1014.1mb 48f 47f
1:24 15 26 mph 1014.1mb 48f 48f
1:18 13 21 mph 1014mb 48f 50f
1:12 7 10 mph - - 51f
1:06 7 11 mph 1014mb 48f 51f
1:00 8 9 mph 1013.9mb 48f 51f
12:36 8 13 mph 1013.9mb 48f 51f
12:30 8 11 mph 1013.8mb 48f 50f
12:24 8 13 mph 1013.8mb 48f 51f
12:18 9 15 mph 1013.8mb 48f 50f
12:12 10 16 mph 1013.9mb 48f 51f
12:06 9 17 mph 1013.9mb 48f 50f
12:00 9 16 mph - - 51f
lun 05/04 11:36 8 15 mph - - 51f
11:30 10 16 mph - - 51f
11:24 11 22 mph - - 51f
11:18 11 17 mph 1013.9mb 48f 51f
11:12 13 20 mph - - 51f
11:06 13 17 mph 1013.8mb 48f 51f
11:00 7 11 mph - - 51f
10:36 7 10 mph 1014mb 49f 51f
10:30 6 13 mph 1013.8mb 49f 51f
10:24 7 10 mph 1013.9mb 49f 51f
10:18 8 14 mph 1013.9mb 49f 51f
10:12 10 13 mph 1013.9mb 49f 51f
10:06 10 15 mph 1014mb 49f 51f
10:00 8 14 mph 1014mb 49f 51f
9:36 10 13 mph 1013.9mb 49f 52f
9:30 9 13 mph 1013.9mb 49f 51f
9:24 10 15 mph 1013.9mb 49f 51f
9:18 10 17 mph 1013.8mb 49f 51f
9:12 10 20 mph 1013.8mb 49f 51f
9:06 11 17 mph 1013.8mb 49f 52f
9:00 11 15 mph 1013.7mb 49f 51f
8:54 10 14 mph 1013.7mb 49f 50f
8:48 10 14 mph 1013.7mb 49f 50f
8:36 13 18 mph 1013.6mb 49f 50f
8:30 14 20 mph 1013.6mb 50f 50f
8:24 15 17 mph 1013.6mb 50f 51f
8:18 6 9 mph 1013.5mb 50f 51f
8:12 9 13 mph 1013.5mb 50f 51f
8:06 8 14 mph 1013.6mb 51f 51f
8:00 9 13 mph 1013.6mb 51f 51f
7:54 10 17 mph 1013.6mb 51f 51f
7:48 13 18 mph 1013.6mb 51f 51f
7:36 9 15 mph - - 51f
7:30 9 15 mph - - 51f
7:24 10 16 mph 1013.8mb 52f 51f
7:18 11 17 mph 1013.9mb 52f 51f
7:12 11 16 mph 1014mb 52f 51f
7:06 11 20 mph 1014.1mb 52f 51f
7:00 10 16 mph 1014.1mb 52f 52f
6:54 13 20 mph - - 51f
6:48 10 17 mph - - 51f
6:36 14 18 mph 1014.3mb 51f 51f
6:30 11 20 mph 1014.3mb 51f 51f
6:24 14 21 mph 1014.4mb 51f 52f
6:18 13 18 mph 1014.4mb 51f 52f
6:12 13 17 mph 1014.4mb 51f 52f
6:06 11 21 mph - - 52f
6:00 11 18 mph 1014.4mb 50f 51f
5:54 13 20 mph 1014.5mb 50f 51f
5:48 14 20 mph 1014.5mb 49f 51f
5:36 14 20 mph 1014.4mb 49f 51f
5:30 13 18 mph 1014.4mb 49f 51f
5:24 11 16 mph 1014.4mb 49f 51f
5:18 10 18 mph 1014.4mb 49f 51f
5:12 13 20 mph 1014.4mb 49f 52f
5:06 11 20 mph 1014.4mb 48f 52f
5:00 10 20 mph 1014.4mb 48f 52f
4:54 13 21 mph 1014.4mb 48f 52f
4:48 11 21 mph 1014.3mb 48f 52f
4:36 16 22 mph 1014.4mb 48f 52f
4:30 14 20 mph 1014.4mb 48f 52f
4:24 15 22 mph 1014.5mb 48f 51f
4:18 11 18 mph 1014.6mb 48f 51f
4:12 14 20 mph 1014.6mb 48f 51f
4:06 13 20 mph 1014.7mb 48f 51f
4:00 10 20 mph 1014.8mb 48f 51f
3:54 14 20 mph 1014.8mb 48f 51f
3:48 16 24 mph 1014.7mb 48f 51f
3:36 16 24 mph 1014.7mb 48f 50f
3:30 15 23 mph 1014.7mb 49f 50f
3:24 13 26 mph 1014.7mb 49f 50f
3:18 16 23 mph 1014.7mb 49f 50f
3:12 15 23 mph 1014.7mb 49f 50f
3:06 13 20 mph 1014.7mb 49f 50f
3:00 14 21 mph 1014.8mb 49f 50f
2:54 14 22 mph 1014.6mb 49f 50f
2:48 11 22 mph 1014.6mb 49f 50f
2:36 17 22 mph - - 50f
2:30 17 23 mph - - 50f
2:24 15 23 mph 1014.4mb 49f 50f
2:18 11 24 mph 1014.4mb 49f 50f
2:12 10 26 mph 1014.4mb 49f 50f
2:06  -  mph 1014.3mb 49f -
2:00 15 22 mph 1014.4mb 49f 49f
1:54 11 21 mph 1014.5mb 49f 49f
1:48 15 20 mph 1014.4mb 49f 49f
1:36 14 20 mph 1014.4mb 49f 50f
1:30 16 23 mph 1014.3mb 49f 49f
1:24 16 24 mph 1014.3mb 49f 50f
1:18 13 22 mph 1014.2mb 49f 50f
1:12 16 24 mph 1014.2mb 49f 50f
1:06 17 22 mph 1014.2mb 49f 50f
1:00 17 25 mph 1014.1mb 49f 50f
12:54 18 22 mph 1014.1mb 49f 51f
12:48 15 23 mph 1014.1mb 49f 51f
12:36 14 18 mph 1014.1mb 49f 51f
12:30 14 24 mph 1014.1mb 49f 51f
12:24 16 22 mph 1014mb 49f 51f
12:18 16 22 mph 1014mb 49f 51f
12:12  -  mph 1014mb 49f -
12:06 15 21 mph 1014mb 49f 51f
12:00 16 23 mph 1013.9mb 49f 52f
11:54 14 22 mph 1013.8mb 49f 52f
11:48 15 24 mph 1013.7mb 49f 52f
11:36 14 20 mph 1013.7mb 48f 52f
11:30 13 18 mph 1013.7mb 48f 51f
11:24 13 20 mph 1013.6mb 48f 51f
11:18 15 22 mph 1013.5mb 48f 51f
11:12 11 21 mph 1013.4mb 48f 52f
11:06 13 18 mph 1013.4mb 48f 52f
11:00 10 16 mph 1013.4mb 48f 52f
10:54 14 20 mph 1013.4mb 48f 51f
10:48 13 18 mph 1013.5mb 48f 51f
10:36 10 15 mph 1013.5mb 48f 51f
10:30 13 17 mph 1013.5mb 48f 51f
10:24 11 16 mph 1013.5mb 48f 51f
10:18 13 16 mph 1013.4mb 49f 51f
10:12 11 15 mph - - 51f
10:06 10 15 mph 1013.3mb 49f 51f
10:00 8 15 mph 1013.2mb 49f 51f
9:54 9 15 mph 1013.1mb 49f 51f
9:48 13 17 mph 1013.1mb 50f 51f
9:36 10 14 mph 1013.1mb 51f 51f
9:30 10 15 mph 1013.2mb 52f 51f
9:24 13 15 mph 1013.3mb 53f 50f
9:18 11 14 mph 1013.3mb 53f 50f
9:12 11 16 mph 1013.2mb 53f 50f
9:06 10 14 mph 1013.2mb 53f 50f
9:00 9 11 mph 1013.2mb 53f 50f
8:54 9 11 mph 1013.2mb 53f 50f
8:48 10 13 mph 1013.1mb 53f 50f
8:36 10 13 mph 1013mb 53f 50f
8:30 8 13 mph 1013mb 53f 50f
8:24 8 13 mph - - 50f
8:18 9 13 mph - - 50f
8:12 8 11 mph 1013mb 53f 50f
8:06 8 10 mph 1013mb 53f 50f
8:00 8 11 mph 1013mb 53f 50f
7:54 10 15 mph 1012.9mb 53f 50f
7:48 8 11 mph 1012.9mb 53f 50f
7:36 6 9 mph 1012.8mb 53f 50f
7:30 7 10 mph - - 50f
7:24 7 10 mph - - 50f
7:18 7 9 mph 1012.6mb 54f 50f
7:12 7 10 mph 1012.6mb 54f 50f
7:06 8 9 mph 1012.6mb 54f 50f
7:00 6 8 mph 1012.5mb 54f 50f
6:54 6 7 mph 1012.6mb 54f 50f
6:48 6 7 mph 1012.5mb 54f 50f
6:36 6 8 mph 1012.5mb 54f 49f
6:30 3 7 mph 1012.5mb 54f 49f
6:24 3 6 mph 1012.4mb 54f 49f
6:18 5 6 mph 1012.5mb 54f 49f
6:12 5 7 mph 1012.4mb 54f 49f
6:06 5 6 mph - - 48f
6:00 5 6 mph 1012.4mb 54f 47f
5:54  -  3 mph 1012.3mb 54f 46f
5:48 2 3 mph 1012.3mb 54f 46f
5:36 1 3 mph 1012.3mb 54f 46f
5:30 2 3 mph - - 46f
5:24 1 3 mph 1012.4mb 54f 46f
5:18 3 5 mph 1012.4mb 53f 46f
5:12 2 3 mph 1012.4mb 53f 46f
5:06 3 5 mph 1012.3mb 53f 46f
5:00 5 6 mph 1012.3mb 52f 46f
4:54 2 5 mph - - 46f
4:48 2 5 mph - - 46f
4:36 3
mph
1012.3mb 50f 46f
4:30 2 3 mph 1012.4mb 50f 46f
4:24 3
mph
1012.4mb 50f 46f
4:18 2 3 mph 1012.4mb 50f 46f
4:12 2 3 mph 1012.4mb 50f 46f
4:06 2 3 mph 1012.4mb 49f 46f
4:00 2
mph
1012.4mb 49f 46f
3:54 1 2 mph 1012.4mb 49f 46f
3:48  -  5 mph 1012.4mb 49f 46f
3:36 3 5 mph 1012.3mb 49f 45f
3:30 3 5 mph 1012.3mb 49f 45f
3:24 2 5 mph 1012.4mb 49f 46f
3:18 3 6 mph 1012.4mb 49f 46f
3:12 5 6 mph 1012.5mb 49f 45f
3:06 5 6 mph 1012.4mb 49f 46f
3:00 3 5 mph 1012.4mb 49f 46f
2:54 5 6 mph 1012.4mb 49f 46f
2:48 3 5 mph 1012.5mb 49f 46f
2:36 3 5 mph 1012.5mb 49f 46f
2:30 3 5 mph 1012.5mb 49f 46f
2:24 2 3 mph 1012.5mb 49f 46f
2:18 2 5 mph 1012.5mb 49f 46f
2:12 2 5 mph 1012.6mb 49f 47f
2:06 3
mph
1012.6mb 49f 46f
2:00 3 5 mph 1012.7mb 49f 47f
1:54 3 5 mph 1012.7mb 49f 46f
1:48 3
mph
1012.6mb 49f 47f
1:36 2 3 mph 1012.7mb 49f 47f
1:30 2 5 mph 1012.8mb 49f 47f
1:24 1 3 mph 1012.8mb 49f 47f
1:18 2
mph
1012.8mb 49f 46f
1:12 2 3 mph 1012.8mb 49f 47f
1:06 2 3 mph 1012.8mb 49f 46f
1:00 2
mph
1012.8mb 49f 46f
12:54 1 2 mph 1012.9mb 49f 46f
12:48 2
mph
1012.8mb 49f 46f
12:36 1 2 mph 1012.8mb 49f 46f
12:30 2 5 mph 1012.8mb 49f 46f
12:24 3 5 mph 1012.8mb 49f 46f
12:18 2 3 mph 1012.8mb 49f 46f
12:12  -  mph 1012.8mb 49f -
12:06 3 5 mph 1012.7mb 49f 46f
12:00 3
mph
1012.7mb 49f 45f
dom 05/03 11:54 3
mph
- - 46f
11:48 1 3 mph - - 45f
11:36 2
mph
- - 45f
11:30 1 2 mph - - 45f
11:24  -  1 mph - - 45f
11:18 2 3 mph 1012.9mb 49f 45f
11:12 2 3 mph - - 46f
11:06 2 3 mph 1012.7mb 49f 47f
11:00 3
mph
- - 46f
10:54 2 3 mph 1012.8mb 49f 47f
10:48 2
mph
1012.9mb 49f 46f
10:36 2 3 mph - - 47f
10:30 2 3 mph - - 47f
10:24 2 3 mph 1013mb 49f 47f
10:18 2 3 mph 1013mb 49f 47f
10:12 3
mph
1013.1mb 49f 48f
10:06 1 2 mph 1013.1mb 50f 48f
10:00 2
mph
- - 48f
9:54 1 3 mph 1013.2mb 50f 49f
9:48 2 3 mph 1013.2mb 50f 49f
9:36  -  mph 1013.3mb 50f -
9:30 3 10 mph 1013.3mb 50f 50f
9:24 7 13 mph 1013.4mb 50f 51f
9:18 7 9 mph 1013.4mb 50f 51f
9:12 6 7 mph 1013.3mb 50f 51f
9:06 2 3 mph 1013.2mb 50f 50f
9:00 1 5 mph - - 50f
8:54 2 8 mph 1013.1mb 50f 51f
8:48 8 10 mph 1013.1mb 50f 51f
8:36 7 8 mph 1013.2mb 50f 51f
8:30  -  mph 1013.1mb 50f -
8:24 8 10 mph 1013.1mb 51f 51f
8:18 9 13 mph 1013.3mb 51f 51f
8:12 10 13 mph - - 51f
8:06 11 14 mph 1013.4mb 52f 51f
8:00 11 15 mph 1013.5mb 52f 51f
7:54 11 14 mph 1013.4mb 53f 51f
7:48 13 15 mph 1013.5mb 53f 51f
7:36 13 14 mph 1013.5mb 53f 52f
7:30 13 15 mph 1013.5mb 54f 52f
7:24 13 15 mph - - 52f
7:18 14 16 mph 1013.5mb 54f 52f
7:12 11 14 mph 1013.5mb 54f 52f
7:06 10 14 mph 1013.5mb 54f 52f
7:00 11 15 mph 1013.6mb 54f 52f
6:54 10 16 mph - - 52f
6:36 11 15 mph 1013.7mb 55f 52f
6:30 13 14 mph 1013.7mb 55f 52f
6:24 11 15 mph 1013.8mb 55f 52f
6:18 10 13 mph 1013.8mb 55f 52f
6:12 9 13 mph - - 51f
6:06 10 14 mph 1013.9mb 54f 51f
6:00 10 14 mph 1013.9mb 54f 51f
5:54 10 14 mph 1014mb 54f 51f
5:48 11 15 mph 1014mb 54f 51f
5:36 11 14 mph 1014mb 54f 51f
5:30 9 13 mph 1014mb 53f 51f
5:24 10 13 mph 1014mb 53f 51f
5:18 9 11 mph 1014mb 53f 51f
5:12 10 13 mph 1014.1mb 52f 52f
5:06 11 14 mph 1014.2mb 52f 52f
5:00 11 14 mph 1014.2mb 51f 52f
4:54 11 13 mph 1014.3mb 51f 52f
4:48 10 11 mph 1014.3mb 50f 52f
4:36 9 10 mph 1014.4mb 50f 52f
4:30 9 10 mph 1014.5mb 49f 52f
4:24 9 13 mph 1014.6mb 49f 52f
4:18 9 11 mph 1014.7mb 49f 52f
4:12 10 11 mph 1014.9mb 49f 52f
4:06 7 10 mph 1014.9mb 50f 52f
4:00 8 10 mph 1015mb 50f 52f
3:54 8 10 mph 1015mb 50f 52f
3:48 8 9 mph 1015.1mb 49f 52f
3:36 7 9 mph - - 52f
3:30 6 7 mph 1015.2mb 49f 52f
3:24 6 8 mph 1015.2mb 49f 52f
3:18 7 8 mph 1015.3mb 49f 52f
3:12 7 8 mph 1015.4mb 49f 52f
3:06 8 9 mph 1015.5mb 49f 52f
3:00 7 10 mph 1015.6mb 49f 52f
2:54 9 10 mph - - 52f
2:48 8 10 mph 1015.7mb 49f 52f
2:36 8 9 mph 1015.7mb 49f 52f
2:30 8 9 mph 1015.7mb 49f 52f
2:24 8 9 mph 1015.7mb 49f 52f
2:18 7
mph
1015.7mb 49f 52f
2:12 6 8 mph 1015.7mb 49f 52f
2:06 6 8 mph 1015.8mb 49f 52f
2:00 6
mph
1015.8mb 49f 52f
1:54 5 7 mph - - 52f
1:48 3 6 mph 1015.8mb 49f 52f
1:36 6 8 mph 1015.9mb 49f 52f
1:30 6 7 mph 1016mb 49f 52f
1:24 5 7 mph 1016.1mb 49f 52f
1:18 6 8 mph 1016.1mb 49f 51f
1:12 6 7 mph 1016.2mb 49f 51f
1:06 6 8 mph 1016.2mb 49f 51f
1:00 6 7 mph 1016.3mb 49f 51f
12:54 6 7 mph 1016.3mb 49f 51f
12:48 6 7 mph 1016.3mb 49f 51f
12:36 6 7 mph 1016.4mb 49f 51f
12:30 5 7 mph 1016.4mb 49f 51f
12:24 6 7 mph 1016.4mb 49f 51f
12:18 6 7 mph 1016.4mb 49f 51f
12:12 6 8 mph 1016.5mb 49f 51f
12:06 5 6 mph 1016.5mb 49f 51f
12:00  -  mph 1016.6mb 49f -
11:54 5 7 mph 1016.5mb 49f 51f
11:48 6 7 mph 1016.5mb 49f 51f
11:36 5 7 mph 1016.7mb 49f 50f
11:30 6 7 mph 1016.7mb 49f 50f
11:24 5 7 mph 1016.8mb 49f 50f
11:18 5 7 mph 1016.8mb 49f 50f
11:12 6 7 mph - - 50f
11:06 5 6 mph 1016.7mb 49f 50f
11:00 5 7 mph 1016.6mb 49f 50f
10:54 6 7 mph 1016.6mb 49f 51f
10:48 6
mph
1016.6mb 49f 51f
10:36 5 6 mph 1016.6mb 49f 51f
10:30 5 6 mph 1016.5mb 49f 51f
10:24 5 6 mph 1016.5mb 49f 50f
10:18 6
mph
1016.5mb 49f 50f
10:12  -  mph 1016.4mb 49f -
10:06 6
mph
1016.4mb 50f 50f
10:00 5 6 mph 1016.4mb 50f 50f
9:54 6 7 mph 1016.4mb 50f 50f
9:48 6 7 mph 1016.3mb 50f 50f
9:36 1 2 mph 1016.3mb 50f 51f
9:30  -  2 mph 1016.2mb 51f 52f
9:24 2 5 mph 1016.2mb 51f 51f
9:18 2 6 mph 1016.2mb 51f 51f
9:12 5 7 mph 1016.3mb 52f 49f
9:06 6 8 mph 1016.3mb 52f 48f
9:00 7 9 mph 1016.2mb 52f 47f
8:54 5 8 mph 1016.2mb 53f 48f
8:48 5 9 mph 1016.2mb 53f 47f
8:36 8 10 mph 1016.3mb 53f 45f
8:30 8 10 mph 1016.3mb 53f 45f
8:24 8 10 mph 1016.3mb 53f 44f
8:18 8 11 mph 1016.4mb 53f 44f
8:12 9 11 mph 1016.4mb 53f 43f
8:06 8 10 mph 1016.4mb 53f 43f
8:00 8 11 mph 1016.4mb 53f 43f
7:54 8 11 mph 1016.5mb 53f 43f
7:48 8 10 mph 1016.5mb 53f 42f
7:36 9 13 mph 1016.4mb 53f 42f
7:30 9 11 mph 1016.4mb 53f 42f
7:24 8 10 mph 1016.4mb 53f 42f
7:18 8 10 mph 1016.4mb 53f 42f
7:12 8 10 mph 1016.4mb 53f 42f
7:06 8 9 mph 1016.3mb 53f 42f
7:00 7 9 mph - - 42f
6:54 7 9 mph 1016.4mb 53f 43f
6:48 7 10 mph 1016.3mb 53f 43f
6:36 7 10 mph 1016.3mb 53f 43f
6:30 6 9 mph - - 43f
6:24 7 10 mph 1016.2mb 53f 43f
6:18 7 10 mph 1016.2mb 53f 42f
6:12 8 9 mph 1016.2mb 53f 42f
6:06 8 10 mph 1016.1mb 53f 42f
6:00 9 10 mph 1016mb 53f 42f
5:54 8 10 mph 1016mb 53f 42f
5:48 7 9 mph 1016mb 53f 42f
5:36 8 10 mph - - 42f
5:30 8 9 mph 1016.1mb 53f 42f
5:24 8 9 mph 1016.1mb 53f 42f
5:18 7 9 mph 1016.1mb 53f 42f
5:12 8 9 mph 1016.1mb 53f 42f
5:06 7 10 mph 1016.1mb 53f 42f
5:00 8 9 mph - - 42f
4:54 8 10 mph 1016.1mb 53f 42f
4:48 8 9 mph 1016.1mb 53f 42f
4:36 8 10 mph 1016.2mb 52f 42f
4:30 8 10 mph 1016.2mb 52f 42f
4:24 9 10 mph 1016.2mb 52f 42f
4:18 8 11 mph 1016.2mb 52f 42f
4:12 9 11 mph 1016.1mb 52f 42f
4:06 6 9 mph 1016.2mb 51f 42f
4:00 7 9 mph 1016.2mb 51f 42f
3:54 7 9 mph 1016.2mb 51f 42f
3:48 7 8 mph 1016.2mb 51f 42f
3:36 9 11 mph 1016.2mb 51f 42f
3:30 9 10 mph 1016.3mb 51f 42f
3:24 8 10 mph 1016.3mb 51f 42f
3:18 6 9 mph 1016.3mb 51f 42f
3:12 8 10 mph 1016.4mb 51f 42f
3:06 6 10 mph 1016.4mb 51f 42f
3:00 7 10 mph 1016.5mb 51f 42f
2:54 6 9 mph 1016.5mb 51f 42f
2:48 8 9 mph 1016.5mb 50f 42f
2:36 6 8 mph 1016.6mb 50f 42f
2:30 5 8 mph 1016.5mb 50f 42f
2:24 6 7 mph 1016.6mb 50f 42f
2:18 6 7 mph 1016.5mb 50f 42f
2:12 6 7 mph 1016.5mb 50f 42f
2:06 5 7 mph 1016.5mb 50f 42f
2:00 5 6 mph 1016.5mb 50f 42f
1:54 6 7 mph 1016.5mb 50f 42f
1:48 6 7 mph 1016.5mb 50f 42f
1:36 6
mph
1016.5mb 50f 43f
1:30 6
mph
1016.6mb 50f 43f
1:24 5 6 mph 1016.6mb 50f 43f
1:18 5 6 mph 1016.7mb 50f 43f
1:12 5 6 mph 1016.7mb 50f 44f
1:06 3 6 mph 1016.7mb 50f 44f
1:00 5 6 mph 1016.7mb 50f 44f
12:54 3 6 mph 1016.7mb 50f 44f
12:48 5
mph
1016.7mb 50f 44f
12:36 5 6 mph 1016.7mb 50f 44f
12:30 3 5 mph 1016.7mb 50f 45f
12:24 3 6 mph 1016.7mb 50f 45f
12:18 2 3 mph 1016.7mb 50f 44f
12:12 2 3 mph 1016.7mb 50f 45f
12:06 3 5 mph 1016.8mb 50f 46f
12:00 2 5 mph 1016.8mb 50f 45f
sáb 05/02 11:54 3 5 mph - - 47f
11:48 5 6 mph - - 47f
11:36 3 5 mph 1016.8mb 50f 47f
11:30 3 6 mph - - 47f
11:24 3 5 mph - - 47f
11:18 2 5 mph - - 48f
11:12 3 5 mph 1017mb 50f 47f
11:06 2 5 mph - - 47f
11:00 3 5 mph - - 47f
10:54 3 6 mph 1017mb 51f 48f
10:48 3 6 mph 1017mb 51f 48f
10:36 3 6 mph 1017mb 51f 48f
10:30 3 5 mph 1017.1mb 51f 48f
10:24 3 6 mph 1017.1mb 51f 49f
10:18 3 7 mph 1017.1mb 51f 49f
10:12 5 6 mph 1017.1mb 51f 49f
10:06 3 6 mph 1017.2mb 51f 49f
10:00 2 6 mph 1017.2mb 51f 49f
9:36 5 7 mph 1017.1mb 51f 49f
9:30 7 8 mph 1017.1mb 51f 50f
9:24 6 8 mph 1017mb 51f 50f
9:18 7 8 mph 1017mb 51f 50f
9:12 7 9 mph 1017mb 51f 51f
9:06 7 9 mph - - 51f
9:00 8 10 mph - - 51f
8:54 7 9 mph 1016.9mb 51f 51f
8:48 7 9 mph 1016.8mb 51f 51f
8:36 9 10 mph 1016.8mb 51f 51f
8:30 8 10 mph 1016.8mb 51f 51f
8:24 9 13 mph 1016.8mb 51f 52f
8:18 10 14 mph 1016.8mb 51f 52f
8:12 13 15 mph 1016.8mb 51f 52f
8:06 11 14 mph 1016.8mb 51f 52f
8:00 14 15 mph 1016.8mb 52f 52f
7:54 13 15 mph 1016.8mb 52f 52f
7:48 14 17 mph 1016.8mb 52f 52f
7:36 14 16 mph 1016.9mb 52f 52f
7:30 13 16 mph 1016.9mb 53f 52f
7:24 16 18 mph 1017mb 53f 52f
7:18 15 18 mph 1017mb 53f 52f
7:12 14 18 mph 1017mb 53f 52f
7:06 14 17 mph 1017.1mb 53f 52f
7:00 15 17 mph 1017.1mb 53f 52f
6:54 16 18 mph - - 52f
6:48 15 20 mph - - 52f
6:36 17 21 mph 1017.3mb 53f 51f
6:30 16 20 mph 1017.3mb 53f 51f
6:24 17 21 mph 1017.4mb 53f 52f
6:18 16 21 mph 1017.5mb 53f 52f
6:12 16 21 mph 1017.5mb 53f 51f
6:06 17 21 mph 1017.6mb 53f 51f
6:00 17 22 mph 1017.6mb 53f 51f
5:54 17 20 mph 1017.7mb 53f 51f
5:48 16 20 mph 1017.7mb 53f 51f
5:36 16 20 mph 1017.7mb 53f 51f
5:30 17 22 mph 1017.7mb 53f 51f
5:24 17 21 mph 1017.7mb 53f 51f
5:18 18 22 mph 1017.7mb 53f 51f
5:12 17 21 mph 1017.6mb 53f 51f
5:06 16 21 mph 1017.7mb 53f 51f
5:00 15 20 mph 1017.7mb 53f 51f
4:54 16 21 mph 1017.8mb 53f 51f
4:48 16 21 mph 1017.8mb 53f 51f
4:36 17 20 mph 1017.9mb 53f 51f
4:30 16 20 mph 1017.9mb 53f 51f
4:24 15 20 mph 1018mb 53f 51f
4:18 16 20 mph 1018.1mb 53f 51f
4:12 15 18 mph 1018.1mb 53f 51f
4:06 15 18 mph 1018.1mb 53f 51f
4:00 15 18 mph 1018.2mb 52f 51f
3:54 15 18 mph 1018.2mb 52f 51f
3:48 15 20 mph 1018.2mb 52f 51f
3:36 14 18 mph 1018.2mb 52f 51f
3:30 15 17 mph 1018.3mb 52f 51f
3:24 14 17 mph 1018.3mb 52f 51f
3:18 15 16 mph 1018.3mb 51f 51f
3:12 14 16 mph 1018.4mb 51f 51f
3:06 14 16 mph 1018.4mb 51f 51f
3:00 13 15 mph 1018.4mb 51f 51f
2:54 13 15 mph 1018.5mb 51f 51f
2:48 13 15 mph 1018.4mb 51f 51f
2:36 10 13 mph 1018.5mb 51f 51f
2:30 11 14 mph 1018.6mb 51f 51f
2:24 10 13 mph 1018.6mb 51f 51f
2:18 10 14 mph 1018.6mb 51f 51f
2:12 10 13 mph 1018.7mb 51f 51f
2:06 9 13 mph 1018.7mb 51f 51f
2:00 10 13 mph 1018.8mb 51f 51f
1:54 9 11 mph 1018.8mb 51f 51f
1:48 8 10 mph 1018.8mb 50f 51f
1:36 8 9 mph - - 51f
1:30 8 9 mph 1018.9mb 50f 51f
1:24 7 8 mph 1018.9mb 50f 51f
1:18 7 8 mph 1018.8mb 50f 51f
1:12 7 8 mph 1018.8mb 50f 51f
1:06 6 8 mph 1018.9mb 50f 51f
1:00 6 8 mph 1018.9mb 50f 51f
12:54 6 8 mph 1018.9mb 50f 51f
12:48 6 7 mph 1019mb 50f 51f
12:36 6 7 mph 1019mb 50f 51f
12:30 6 7 mph 1019.1mb 50f 51f
12:24 6 7 mph 1019.1mb 50f 51f
12:18 6 7 mph 1019.1mb 50f 51f
12:12 6 7 mph 1019.1mb 50f 50f
12:06 6
mph
1019.2mb 50f 51f
12:00 5 7 mph 1019.2mb 51f 50f
11:54 5 7 mph 1019.2mb 51f 50f
11:48 6 7 mph 1019.2mb 51f 50f
11:36 5 6 mph 1019.1mb 51f 50f
11:30 5 6 mph 1019.1mb 51f 50f
11:24 5 6 mph 1019.1mb 51f 50f
11:18 3 6 mph 1019.1mb 51f 50f
11:12 6 7 mph 1019.1mb 51f 50f
11:06 6 7 mph 1019.1mb 51f 50f
11:00 6 8 mph 1019.2mb 51f 50f
10:54 6 7 mph 1019.1mb 51f 50f
10:48 6 7 mph 1019.2mb 51f 50f
10:36 6 7 mph 1019.2mb 51f 50f
10:30 6 7 mph 1019.2mb 51f 50f
10:24 5 7 mph 1019.2mb 51f 50f
10:18 5 7 mph 1019.1mb 51f 50f
10:12 5 6 mph 1019.1mb 51f 50f
10:06 5 6 mph 1019.1mb 51f 50f
10:00 3 5 mph 1019mb 51f 49f
9:54 5 6 mph - - 49f
9:48 5 6 mph - - 49f
9:36 3
mph
1019mb 51f 50f
9:30 2 5 mph 1019mb 51f 50f
9:24 1 2 mph 1019mb 51f 50f
9:18 1 3 mph 1019mb 51f 50f
9:12 2 5 mph 1019mb 51f 50f
9:06 5 6 mph 1018.9mb 51f 49f
9:00 5 7 mph 1018.9mb 51f 48f
8:54 6 8 mph 1018.9mb 51f 48f
8:48 3 7 mph 1018.9mb 51f 48f
8:36 5 7 mph 1019mb 52f 46f
8:30 3 7 mph 1019mb 52f 46f
8:24 5 9 mph 1019mb 52f 45f
8:18 7 9 mph 1019mb 52f 44f
8:12 6 9 mph 1018.9mb 52f 44f
8:06 7 10 mph - - 44f
8:00 8 11 mph - - 43f
7:54 8 11 mph 1018.8mb 52f 43f
7:48 8 10 mph 1018.8mb 52f 42f
7:36 7 9 mph 1018.8mb 52f 42f
7:30 8 10 mph 1018.7mb 52f 42f
7:24 9 10 mph - - 42f
7:18 7 10 mph 1018.7mb 52f 42f
7:12 7 9 mph 1018.7mb 52f 41f
7:06 6 10 mph 1018.7mb 52f 41f
7:00 8 10 mph 1018.7mb 52f 41f
6:54 8 10 mph 1018.6mb 52f 41f
6:48 8 10 mph 1018.6mb 52f 41f
6:36 8 10 mph 1018.5mb 52f 41f
6:30 8 10 mph 1018.5mb 52f 41f
6:24 7 9 mph 1018.5mb 52f 41f
6:18 8 9 mph 1018.4mb 52f 41f
6:12 7 9 mph 1018.4mb 52f 41f
6:06 7 9 mph 1018.3mb 52f 41f
6:00 7 9 mph 1018.3mb 52f 41f
5:54 7 9 mph 1018.3mb 52f 41f
5:48 7 9 mph 1018.2mb 52f 42f
5:36 7 9 mph - - 42f
5:30 7 9 mph 1018.1mb 52f 42f
5:24 7 8 mph 1018.1mb 52f 42f
5:18 7 8 mph 1018.1mb 52f 42f